sensor_id;sensor_type;location;lat;lon;timestamp;temperature;humidity
29725;DHT22;16636;48.394;15.468;2023-03-01T00:02:07;1.40;99.90
29725;DHT22;16636;48.394;15.468;2023-03-01T00:04:33;1.40;99.90
29725;DHT22;16636;48.394;15.468;2023-03-01T00:07:01;1.40;99.90
29725;DHT22;16636;48.394;15.468;2023-03-01T00:09:27;1.30;99.90
29725;DHT22;16636;48.394;15.468;2023-03-01T00:11:53;1.30;99.90
29725;DHT22;16636;48.394;15.468;2023-03-01T00:14:19;1.30;99.90
29725;DHT22;16636;48.394;15.468;2023-03-01T00:16:45;1.30;99.90
29725;DHT22;16636;48.394;15.468;2023-03-01T00:19:15;1.30;99.90
29725;DHT22;16636;48.394;15.468;2023-03-01T00:21:41;1.30;99.90
29725;DHT22;16636;48.394;15.468;2023-03-01T00:24:08;1.30;99.90
29725;DHT22;16636;48.394;15.468;2023-03-01T00:26:34;1.30;99.90
29725;DHT22;16636;48.394;15.468;2023-03-01T00:29:00;1.30;99.90
29725;DHT22;16636;48.394;15.468;2023-03-01T00:31:29;1.20;99.90
29725;DHT22;16636;48.394;15.468;2023-03-01T00:33:59;1.20;99.90
29725;DHT22;16636;48.394;15.468;2023-03-01T00:36:31;1.20;99.90
29725;DHT22;16636;48.394;15.468;2023-03-01T00:38:57;1.20;99.90
29725;DHT22;16636;48.394;15.468;2023-03-01T00:41:24;1.20;99.90
29725;DHT22;16636;48.394;15.468;2023-03-01T00:43:52;1.10;99.90
29725;DHT22;16636;48.394;15.468;2023-03-01T00:46:22;1.10;99.90
29725;DHT22;16636;48.394;15.468;2023-03-01T00:48:49;1.10;99.90
29725;DHT22;16636;48.394;15.468;2023-03-01T00:51:24;1.10;99.90
29725;DHT22;16636;48.394;15.468;2023-03-01T00:53:56;1.10;99.90
29725;DHT22;16636;48.394;15.468;2023-03-01T00:56:22;1.10;99.90
29725;DHT22;16636;48.394;15.468;2023-03-01T00:58:48;1.10;99.90
29725;DHT22;16636;48.394;15.468;2023-03-01T01:01:20;1.00;99.90
29725;DHT22;16636;48.394;15.468;2023-03-01T01:04:01;1.00;99.90
29725;DHT22;16636;48.394;15.468;2023-03-01T01:06:30;1.00;99.90
29725;DHT22;16636;48.394;15.468;2023-03-01T01:08:57;1.00;99.90
29725;DHT22;16636;48.394;15.468;2023-03-01T01:11:25;1.00;99.90
29725;DHT22;16636;48.394;15.468;2023-03-01T01:13:52;1.00;99.90
29725;DHT22;16636;48.394;15.468;2023-03-01T01:16:20;1.00;99.90
29725;DHT22;16636;48.394;15.468;2023-03-01T01:18:47;1.00;99.90
29725;DHT22;16636;48.394;15.468;2023-03-01T01:21:15;1.00;99.90
29725;DHT22;16636;48.394;15.468;2023-03-01T01:23:43;1.00;99.90
29725;DHT22;16636;48.394;15.468;2023-03-01T01:26:18;0.90;99.90
29725;DHT22;16636;48.394;15.468;2023-03-01T01:28:45;0.90;99.90
29725;DHT22;16636;48.394;15.468;2023-03-01T01:31:11;0.90;99.90
29725;DHT22;16636;48.394;15.468;2023-03-01T01:33:38;0.90;99.90
29725;DHT22;16636;48.394;15.468;2023-03-01T01:36:06;0.90;99.90
29725;DHT22;16636;48.394;15.468;2023-03-01T01:38:33;0.90;99.90
29725;DHT22;16636;48.394;15.468;2023-03-01T01:40:59;0.90;99.90
29725;DHT22;16636;48.394;15.468;2023-03-01T01:43:28;0.90;99.90
29725;DHT22;16636;48.394;15.468;2023-03-01T01:46:01;0.90;99.90
29725;DHT22;16636;48.394;15.468;2023-03-01T01:48:43;0.90;99.90
29725;DHT22;16636;48.394;15.468;2023-03-01T01:51:14;0.90;99.90
29725;DHT22;16636;48.394;15.468;2023-03-01T01:53:42;0.90;99.90
29725;DHT22;16636;48.394;15.468;2023-03-01T01:56:12;0.80;99.90
29725;DHT22;16636;48.394;15.468;2023-03-01T01:58:38;0.80;99.90
29725;DHT22;16636;48.394;15.468;2023-03-01T02:01:06;0.80;99.90
29725;DHT22;16636;48.394;15.468;2023-03-01T02:03:35;0.80;99.90
29725;DHT22;16636;48.394;15.468;2023-03-01T02:06:15;0.80;99.90
29725;DHT22;16636;48.394;15.468;2023-03-01T02:08:44;0.80;99.90
29725;DHT22;16636;48.394;15.468;2023-03-01T02:11:13;0.80;99.90
29725;DHT22;16636;48.394;15.468;2023-03-01T02:13:41;0.80;99.90
29725;DHT22;16636;48.394;15.468;2023-03-01T02:16:13;0.70;99.90
29725;DHT22;16636;48.394;15.468;2023-03-01T02:18:41;0.70;99.90
29725;DHT22;16636;48.394;15.468;2023-03-01T02:24:34;0.70;99.90
29725;DHT22;16636;48.394;15.468;2023-03-01T02:27:03;0.70;99.90
29725;DHT22;16636;48.394;15.468;2023-03-01T02:29:29;0.70;99.90
29725;DHT22;16636;48.394;15.468;2023-03-01T02:31:57;0.70;99.90
29725;DHT22;16636;48.394;15.468;2023-03-01T02:34:26;0.60;99.90
29725;DHT22;16636;48.394;15.468;2023-03-01T02:37:05;0.60;99.90
29725;DHT22;16636;48.394;15.468;2023-03-01T02:39:47;0.60;99.90
29725;DHT22;16636;48.394;15.468;2023-03-01T02:42:21;0.60;99.90
29725;DHT22;16636;48.394;15.468;2023-03-01T02:44:49;0.60;99.90
29725;DHT22;16636;48.394;15.468;2023-03-01T02:47:15;0.60;99.90
29725;DHT22;16636;48.394;15.468;2023-03-01T02:49:41;0.60;99.90
29725;DHT22;16636;48.394;15.468;2023-03-01T02:55:03;0.60;99.90
29725;DHT22;16636;48.394;15.468;2023-03-01T02:57:32;0.60;99.90
29725;DHT22;16636;48.394;15.468;2023-03-01T03:00:03;0.50;99.90
29725;DHT22;16636;48.394;15.468;2023-03-01T03:02:33;0.60;99.90
29725;DHT22;16636;48.394;15.468;2023-03-01T03:05:28;0.60;99.90
29725;DHT22;16636;48.394;15.468;2023-03-01T03:07:58;0.60;99.90
29725;DHT22;16636;48.394;15.468;2023-03-01T03:10:31;0.50;99.90
29725;DHT22;16636;48.394;15.468;2023-03-01T03:13:06;0.60;99.90
29725;DHT22;16636;48.394;15.468;2023-03-01T03:15:33;0.50;99.90
29725;DHT22;16636;48.394;15.468;2023-03-01T03:18:05;0.60;99.90
29725;DHT22;16636;48.394;15.468;2023-03-01T03:20:33;0.50;99.90
29725;DHT22;16636;48.394;15.468;2023-03-01T03:22:59;0.50;99.90
29725;DHT22;16636;48.394;15.468;2023-03-01T03:25:26;0.50;99.90
29725;DHT22;16636;48.394;15.468;2023-03-01T03:27:54;0.60;99.90
29725;DHT22;16636;48.394;15.468;2023-03-01T03:30:26;0.60;99.90
29725;DHT22;16636;48.394;15.468;2023-03-01T03:32:52;0.60;99.90
29725;DHT22;16636;48.394;15.468;2023-03-01T03:35:30;0.60;99.90
29725;DHT22;16636;48.394;15.468;2023-03-01T03:37:57;0.60;99.90
29725;DHT22;16636;48.394;15.468;2023-03-01T03:40:43;0.70;99.90
29725;DHT22;16636;48.394;15.468;2023-03-01T03:43:15;0.70;99.90
29725;DHT22;16636;48.394;15.468;2023-03-01T03:45:43;0.70;99.90
29725;DHT22;16636;48.394;15.468;2023-03-01T03:48:09;0.70;99.90
29725;DHT22;16636;48.394;15.468;2023-03-01T03:50:37;0.70;99.90
29725;DHT22;16636;48.394;15.468;2023-03-01T03:53:09;0.70;99.90
29725;DHT22;16636;48.394;15.468;2023-03-01T03:55:36;0.70;99.90
29725;DHT22;16636;48.394;15.468;2023-03-01T03:58:06;0.80;99.90
29725;DHT22;16636;48.394;15.468;2023-03-01T04:00:44;0.80;99.90
29725;DHT22;16636;48.394;15.468;2023-03-01T04:03:12;0.80;99.90
29725;DHT22;16636;48.394;15.468;2023-03-01T04:05:39;0.80;99.90
29725;DHT22;16636;48.394;15.468;2023-03-01T04:08:05;0.80;99.90
29725;DHT22;16636;48.394;15.468;2023-03-01T04:10:39;0.80;99.90
29725;DHT22;16636;48.394;15.468;2023-03-01T04:13:07;0.80;99.90
29725;DHT22;16636;48.394;15.468;2023-03-01T04:15:34;0.90;99.90
29725;DHT22;16636;48.394;15.468;2023-03-01T04:18:00;0.80;99.90
29725;DHT22;16636;48.394;15.468;2023-03-01T04:20:29;0.80;99.90
29725;DHT22;16636;48.394;15.468;2023-03-01T04:23:08;0.90;99.90
29725;DHT22;16636;48.394;15.468;2023-03-01T04:25:49;0.80;99.90
29725;DHT22;16636;48.394;15.468;2023-03-01T04:30:53;0.80;99.90
29725;DHT22;16636;48.394;15.468;2023-03-01T04:33:19;0.80;99.90
29725;DHT22;16636;48.394;15.468;2023-03-01T04:35:46;0.80;99.90
29725;DHT22;16636;48.394;15.468;2023-03-01T04:38:16;0.80;99.90
29725;DHT22;16636;48.394;15.468;2023-03-01T04:40:42;0.80;99.90
29725;DHT22;16636;48.394;15.468;2023-03-01T04:43:10;0.80;99.90
29725;DHT22;16636;48.394;15.468;2023-03-01T04:45:36;0.90;99.90
29725;DHT22;16636;48.394;15.468;2023-03-01T04:48:03;0.90;99.90
29725;DHT22;16636;48.394;15.468;2023-03-01T04:50:29;0.90;99.90
29725;DHT22;16636;48.394;15.468;2023-03-01T04:52:56;0.90;99.90
29725;DHT22;16636;48.394;15.468;2023-03-01T04:55:27;0.90;99.90
29725;DHT22;16636;48.394;15.468;2023-03-01T04:57:54;0.90;99.90
29725;DHT22;16636;48.394;15.468;2023-03-01T05:00:21;0.80;99.90
29725;DHT22;16636;48.394;15.468;2023-03-01T05:05:15;0.80;99.90
29725;DHT22;16636;48.394;15.468;2023-03-01T05:07:41;0.80;99.90
29725;DHT22;16636;48.394;15.468;2023-03-01T05:10:07;0.80;99.90
29725;DHT22;16636;48.394;15.468;2023-03-01T05:12:33;0.80;99.90
29725;DHT22;16636;48.394;15.468;2023-03-01T05:14:59;0.80;99.90
29725;DHT22;16636;48.394;15.468;2023-03-01T05:17:25;0.80;99.90
29725;DHT22;16636;48.394;15.468;2023-03-01T05:19:51;0.70;99.90
29725;DHT22;16636;48.394;15.468;2023-03-01T05:22:17;0.70;99.90
29725;DHT22;16636;48.394;15.468;2023-03-01T05:24:44;0.70;99.90
29725;DHT22;16636;48.394;15.468;2023-03-01T05:27:12;0.70;99.90
29725;DHT22;16636;48.394;15.468;2023-03-01T05:29:38;0.70;99.90
29725;DHT22;16636;48.394;15.468;2023-03-01T05:32:05;0.70;99.90
29725;DHT22;16636;48.394;15.468;2023-03-01T05:34:35;0.70;99.90
29725;DHT22;16636;48.394;15.468;2023-03-01T05:37:02;0.60;99.90
29725;DHT22;16636;48.394;15.468;2023-03-01T05:39:29;0.60;99.90
29725;DHT22;16636;48.394;15.468;2023-03-01T05:41:57;0.60;99.90
29725;DHT22;16636;48.394;15.468;2023-03-01T05:44:24;0.60;99.90
29725;DHT22;16636;48.394;15.468;2023-03-01T05:46:50;0.60;99.90
29725;DHT22;16636;48.394;15.468;2023-03-01T05:49:16;0.60;99.90
29725;DHT22;16636;48.394;15.468;2023-03-01T05:51:43;0.50;99.90
29725;DHT22;16636;48.394;15.468;2023-03-01T05:54:12;0.50;99.90
29725;DHT22;16636;48.394;15.468;2023-03-01T05:56:38;0.50;99.90
29725;DHT22;16636;48.394;15.468;2023-03-01T05:59:05;0.50;99.90
29725;DHT22;16636;48.394;15.468;2023-03-01T06:01:32;0.50;99.90
29725;DHT22;16636;48.394;15.468;2023-03-01T06:03:58;0.40;99.90
29725;DHT22;16636;48.394;15.468;2023-03-01T06:06:25;0.40;99.90
29725;DHT22;16636;48.394;15.468;2023-03-01T06:08:51;0.50;99.90
29725;DHT22;16636;48.394;15.468;2023-03-01T06:11:18;0.50;99.90
29725;DHT22;16636;48.394;15.468;2023-03-01T06:13:45;0.40;99.90
29725;DHT22;16636;48.394;15.468;2023-03-01T06:16:11;0.40;99.90
29725;DHT22;16636;48.394;15.468;2023-03-01T06:18:38;0.40;99.90
29725;DHT22;16636;48.394;15.468;2023-03-01T06:21:05;0.40;99.90
29725;DHT22;16636;48.394;15.468;2023-03-01T06:23:32;0.40;99.90
29725;DHT22;16636;48.394;15.468;2023-03-01T06:25:58;0.40;99.90
29725;DHT22;16636;48.394;15.468;2023-03-01T06:28:24;0.40;99.90
29725;DHT22;16636;48.394;15.468;2023-03-01T06:30:51;0.40;99.90
29725;DHT22;16636;48.394;15.468;2023-03-01T06:33:18;0.40;99.90
29725;DHT22;16636;48.394;15.468;2023-03-01T06:35:48;0.40;99.90
29725;DHT22;16636;48.394;15.468;2023-03-01T06:38:14;0.50;99.90
29725;DHT22;16636;48.394;15.468;2023-03-01T06:40:40;0.50;99.90
29725;DHT22;16636;48.394;15.468;2023-03-01T06:43:07;0.40;99.90
29725;DHT22;16636;48.394;15.468;2023-03-01T06:45:33;0.50;99.90
29725;DHT22;16636;48.394;15.468;2023-03-01T06:48:07;0.50;99.90
29725;DHT22;16636;48.394;15.468;2023-03-01T06:50:34;0.50;99.90
29725;DHT22;16636;48.394;15.468;2023-03-01T06:53:00;0.40;99.90
29725;DHT22;16636;48.394;15.468;2023-03-01T06:55:26;0.50;99.90
29725;DHT22;16636;48.394;15.468;2023-03-01T06:57:56;0.50;99.90
29725;DHT22;16636;48.394;15.468;2023-03-01T07:00:23;0.50;99.90
29725;DHT22;16636;48.394;15.468;2023-03-01T07:02:49;0.50;99.90
29725;DHT22;16636;48.394;15.468;2023-03-01T07:05:15;0.50;99.90
29725;DHT22;16636;48.394;15.468;2023-03-01T07:07:41;0.50;99.90
29725;DHT22;16636;48.394;15.468;2023-03-01T07:10:08;0.50;99.90
29725;DHT22;16636;48.394;15.468;2023-03-01T07:12:34;0.50;99.90
29725;DHT22;16636;48.394;15.468;2023-03-01T07:15:00;0.50;99.90
29725;DHT22;16636;48.394;15.468;2023-03-01T07:17:26;0.50;99.90
29725;DHT22;16636;48.394;15.468;2023-03-01T07:19:52;0.60;99.90
29725;DHT22;16636;48.394;15.468;2023-03-01T07:22:18;0.60;99.90
29725;DHT22;16636;48.394;15.468;2023-03-01T07:24:44;0.60;99.90
29725;DHT22;16636;48.394;15.468;2023-03-01T07:27:10;0.70;99.90
29725;DHT22;16636;48.394;15.468;2023-03-01T07:29:37;0.70;99.90
29725;DHT22;16636;48.394;15.468;2023-03-01T07:32:04;0.80;99.90
29725;DHT22;16636;48.394;15.468;2023-03-01T07:34:31;0.80;99.90
29725;DHT22;16636;48.394;15.468;2023-03-01T07:36:57;0.80;99.90
29725;DHT22;16636;48.394;15.468;2023-03-01T07:39:23;0.80;99.90
29725;DHT22;16636;48.394;15.468;2023-03-01T07:44:17;0.90;99.90
29725;DHT22;16636;48.394;15.468;2023-03-01T07:46:43;1.00;99.90
29725;DHT22;16636;48.394;15.468;2023-03-01T07:49:10;1.00;99.90
29725;DHT22;16636;48.394;15.468;2023-03-01T07:51:36;1.00;99.90
29725;DHT22;16636;48.394;15.468;2023-03-01T07:54:02;1.10;99.90
29725;DHT22;16636;48.394;15.468;2023-03-01T07:56:28;1.10;99.90
29725;DHT22;16636;48.394;15.468;2023-03-01T07:58:54;1.10;99.90
29725;DHT22;16636;48.394;15.468;2023-03-01T08:01:21;1.20;99.90
29725;DHT22;16636;48.394;15.468;2023-03-01T08:03:47;1.20;99.90
29725;DHT22;16636;48.394;15.468;2023-03-01T08:06:15;1.30;99.90
29725;DHT22;16636;48.394;15.468;2023-03-01T08:08:42;1.30;99.90
29725;DHT22;16636;48.394;15.468;2023-03-01T08:11:11;1.30;99.90
29725;DHT22;16636;48.394;15.468;2023-03-01T08:13:37;1.40;99.90
29725;DHT22;16636;48.394;15.468;2023-03-01T08:16:14;1.40;99.90
29725;DHT22;16636;48.394;15.468;2023-03-01T08:18:41;1.50;99.90
29725;DHT22;16636;48.394;15.468;2023-03-01T08:21:10;1.50;99.90
29725;DHT22;16636;48.394;15.468;2023-03-01T08:23:36;1.60;99.90
29725;DHT22;16636;48.394;15.468;2023-03-01T08:26:14;1.60;99.90
29725;DHT22;16636;48.394;15.468;2023-03-01T08:28:40;1.60;99.90
29725;DHT22;16636;48.394;15.468;2023-03-01T08:33:44;1.70;99.90
29725;DHT22;16636;48.394;15.468;2023-03-01T08:36:17;1.80;99.90
29725;DHT22;16636;48.394;15.468;2023-03-01T08:38:43;1.80;99.90
29725;DHT22;16636;48.394;15.468;2023-03-01T08:41:09;1.90;99.90
29725;DHT22;16636;48.394;15.468;2023-03-01T08:43:35;1.90;99.90
29725;DHT22;16636;48.394;15.468;2023-03-01T08:46:01;2.00;99.90
29725;DHT22;16636;48.394;15.468;2023-03-01T08:51:35;2.10;99.90
29725;DHT22;16636;48.394;15.468;2023-03-01T08:54:11;2.20;99.90
29725;DHT22;16636;48.394;15.468;2023-03-01T08:56:38;2.20;99.90
29725;DHT22;16636;48.394;15.468;2023-03-01T08:59:04;2.30;99.90
29725;DHT22;16636;48.394;15.468;2023-03-01T09:01:30;2.30;99.90
29725;DHT22;16636;48.394;15.468;2023-03-01T09:03:56;2.30;99.90
29725;DHT22;16636;48.394;15.468;2023-03-01T09:06:22;2.40;99.90
29725;DHT22;16636;48.394;15.468;2023-03-01T09:08:50;2.40;99.90
29725;DHT22;16636;48.394;15.468;2023-03-01T09:11:20;2.50;99.90
29725;DHT22;16636;48.394;15.468;2023-03-01T09:13:47;2.50;99.90
29725;DHT22;16636;48.394;15.468;2023-03-01T09:16:17;2.60;99.90
29725;DHT22;16636;48.394;15.468;2023-03-01T09:18:44;2.70;99.90
29725;DHT22;16636;48.394;15.468;2023-03-01T09:21:12;2.80;99.90
29725;DHT22;16636;48.394;15.468;2023-03-01T09:23:42;2.80;99.90
29725;DHT22;16636;48.394;15.468;2023-03-01T09:26:19;2.90;99.90
29725;DHT22;16636;48.394;15.468;2023-03-01T09:28:47;3.00;99.90
29725;DHT22;16636;48.394;15.468;2023-03-01T09:31:15;3.00;99.90
29725;DHT22;16636;48.394;15.468;2023-03-01T09:33:42;3.10;99.90
29725;DHT22;16636;48.394;15.468;2023-03-01T09:36:19;3.10;99.90
29725;DHT22;16636;48.394;15.468;2023-03-01T09:38:46;3.20;99.90
29725;DHT22;16636;48.394;15.468;2023-03-01T09:43:59;3.30;99.90
29725;DHT22;16636;48.394;15.468;2023-03-01T09:46:32;3.40;99.90
29725;DHT22;16636;48.394;15.468;2023-03-01T09:49:26;3.50;99.90
29725;DHT22;16636;48.394;15.468;2023-03-01T09:54:31;3.70;99.90
29725;DHT22;16636;48.394;15.468;2023-03-01T10:04:50;4.10;99.90
29725;DHT22;16636;48.394;15.468;2023-03-01T10:08:00;4.30;99.90
29725;DHT22;16636;48.394;15.468;2023-03-01T10:10:43;4.40;99.90
29725;DHT22;16636;48.394;15.468;2023-03-01T10:15:52;4.50;99.90
29725;DHT22;16636;48.394;15.468;2023-03-01T10:18:26;4.70;99.90
29725;DHT22;16636;48.394;15.468;2023-03-01T10:21:19;4.80;99.90
29725;DHT22;16636;48.394;15.468;2023-03-01T10:23:50;4.90;99.90
29725;DHT22;16636;48.394;15.468;2023-03-01T10:29:09;5.00;99.90
29725;DHT22;16636;48.394;15.468;2023-03-01T10:31:44;5.00;99.90
29725;DHT22;16636;48.394;15.468;2023-03-01T10:34:29;4.90;99.90
29725;DHT22;16636;48.394;15.468;2023-03-01T10:37:01;5.00;99.90
29725;DHT22;16636;48.394;15.468;2023-03-01T10:39:27;5.10;99.90
29725;DHT22;16636;48.394;15.468;2023-03-01T10:42:00;5.30;99.90
29725;DHT22;16636;48.394;15.468;2023-03-01T10:44:39;5.40;99.90
29725;DHT22;16636;48.394;15.468;2023-03-01T10:47:17;5.80;99.90
29725;DHT22;16636;48.394;15.468;2023-03-01T10:49:59;6.10;99.90
29725;DHT22;16636;48.394;15.468;2023-03-01T10:52:40;6.50;99.90
29725;DHT22;16636;48.394;15.468;2023-03-01T10:57:40;7.20;99.90
29725;DHT22;16636;48.394;15.468;2023-03-01T11:00:22;7.30;99.90
29725;DHT22;16636;48.394;15.468;2023-03-01T11:03:13;7.30;99.90
29725;DHT22;16636;48.394;15.468;2023-03-01T11:05:53;7.30;99.90
29725;DHT22;16636;48.394;15.468;2023-03-01T11:11:17;7.60;99.90
29725;DHT22;16636;48.394;15.468;2023-03-01T11:14:02;7.90;99.90
29725;DHT22;16636;48.394;15.468;2023-03-01T11:16:37;7.90;99.90
29725;DHT22;16636;48.394;15.468;2023-03-01T11:24:29;8.20;99.90
29725;DHT22;16636;48.394;15.468;2023-03-01T11:26:56;8.10;99.90
29725;DHT22;16636;48.394;15.468;2023-03-01T11:29:39;7.90;99.90
29725;DHT22;16636;48.394;15.468;2023-03-01T11:32:09;7.70;99.90
29725;DHT22;16636;48.394;15.468;2023-03-01T11:34:54;7.60;99.90
29725;DHT22;16636;48.394;15.468;2023-03-01T11:46:35;7.10;99.90
29725;DHT22;16636;48.394;15.468;2023-03-01T12:05:24;8.30;99.90
29725;DHT22;16636;48.394;15.468;2023-03-01T12:08:10;8.40;99.90
29725;DHT22;16636;48.394;15.468;2023-03-01T12:27:31;9.40;99.90
29725;DHT22;16636;48.394;15.468;2023-03-01T12:35:53;9.80;99.90
29725;DHT22;16636;48.394;15.468;2023-03-01T12:41:33;9.60;99.90
29725;DHT22;16636;48.394;15.468;2023-03-01T12:50:41;9.90;99.90
29725;DHT22;16636;48.394;15.468;2023-03-01T12:53:23;10.10;99.90
29725;DHT22;16636;48.394;15.468;2023-03-01T12:55:51;9.90;99.90
29725;DHT22;16636;48.394;15.468;2023-03-01T13:06:44;10.00;99.90
29725;DHT22;16636;48.394;15.468;2023-03-01T13:12:02;10.20;99.90
29725;DHT22;16636;48.394;15.468;2023-03-01T13:16:57;10.40;99.90
29725;DHT22;16636;48.394;15.468;2023-03-01T13:19:27;10.50;99.90
29725;DHT22;16636;48.394;15.468;2023-03-01T13:22:31;10.40;99.90
29725;DHT22;16636;48.394;15.468;2023-03-01T13:25:22;10.40;99.90
29725;DHT22;16636;48.394;15.468;2023-03-01T13:27:48;10.40;99.90
29725;DHT22;16636;48.394;15.468;2023-03-01T13:35:54;10.50;99.90
29725;DHT22;16636;48.394;15.468;2023-03-01T13:38:44;10.50;99.90
29725;DHT22;16636;48.394;15.468;2023-03-01T13:41:13;10.50;99.90
29725;DHT22;16636;48.394;15.468;2023-03-01T13:43:44;10.50;99.90
29725;DHT22;16636;48.394;15.468;2023-03-01T13:46:18;10.50;99.90
29725;DHT22;16636;48.394;15.468;2023-03-01T13:48:52;10.50;99.90
29725;DHT22;16636;48.394;15.468;2023-03-01T13:51:25;10.50;99.90
29725;DHT22;16636;48.394;15.468;2023-03-01T13:53:53;10.50;99.90
29725;DHT22;16636;48.394;15.468;2023-03-01T13:56:28;10.60;99.90
29725;DHT22;16636;48.394;15.468;2023-03-01T13:59:02;10.80;99.90
29725;DHT22;16636;48.394;15.468;2023-03-01T14:01:35;10.60;99.90
29725;DHT22;16636;48.394;15.468;2023-03-01T14:04:03;10.50;99.90
29725;DHT22;16636;48.394;15.468;2023-03-01T14:06:32;10.50;99.90
29725;DHT22;16636;48.394;15.468;2023-03-01T14:09:16;10.50;99.90
29725;DHT22;16636;48.394;15.468;2023-03-01T14:19:26;10.50;99.90
29725;DHT22;16636;48.394;15.468;2023-03-01T14:25:01;10.60;99.90
29725;DHT22;16636;48.394;15.468;2023-03-01T14:27:37;10.60;99.90
29725;DHT22;16636;48.394;15.468;2023-03-01T14:30:15;10.50;99.90
29725;DHT22;16636;48.394;15.468;2023-03-01T14:32:56;10.50;99.90
29725;DHT22;16636;48.394;15.468;2023-03-01T14:35:28;10.40;99.90
29725;DHT22;16636;48.394;15.468;2023-03-01T14:37:55;10.40;99.90
29725;DHT22;16636;48.394;15.468;2023-03-01T14:40:41;10.30;99.90
29725;DHT22;16636;48.394;15.468;2023-03-01T14:43:16;10.30;99.90
29725;DHT22;16636;48.394;15.468;2023-03-01T14:45:48;10.20;99.90
29725;DHT22;16636;48.394;15.468;2023-03-01T14:48:15;10.30;99.90
29725;DHT22;16636;48.394;15.468;2023-03-01T14:50:43;10.20;99.90
29725;DHT22;16636;48.394;15.468;2023-03-01T14:53:22;10.20;99.90
29725;DHT22;16636;48.394;15.468;2023-03-01T14:55:55;10.10;99.90
29725;DHT22;16636;48.394;15.468;2023-03-01T14:58:24;10.10;99.90
29725;DHT22;16636;48.394;15.468;2023-03-01T15:00:57;10.00;99.90
29725;DHT22;16636;48.394;15.468;2023-03-01T15:03:34;9.90;99.90
29725;DHT22;16636;48.394;15.468;2023-03-01T15:06:01;9.90;99.90
29725;DHT22;16636;48.394;15.468;2023-03-01T15:08:28;9.80;99.90
29725;DHT22;16636;48.394;15.468;2023-03-01T15:13:32;9.50;99.90
29725;DHT22;16636;48.394;15.468;2023-03-01T15:16:21;9.30;99.90
29725;DHT22;16636;48.394;15.468;2023-03-01T15:18:54;9.10;99.90
29725;DHT22;16636;48.394;15.468;2023-03-01T15:21:23;9.00;99.90
29725;DHT22;16636;48.394;15.468;2023-03-01T15:23:53;8.90;99.90
29725;DHT22;16636;48.394;15.468;2023-03-01T15:26:28;8.80;99.90
29725;DHT22;16636;48.394;15.468;2023-03-01T15:28:56;8.70;99.90
29725;DHT22;16636;48.394;15.468;2023-03-01T15:31:36;8.70;99.90
29725;DHT22;16636;48.394;15.468;2023-03-01T15:34:33;8.60;99.90
29725;DHT22;16636;48.394;15.468;2023-03-01T15:37:02;8.50;99.90
29725;DHT22;16636;48.394;15.468;2023-03-01T15:39:40;8.50;99.90
29725;DHT22;16636;48.394;15.468;2023-03-01T15:47:41;8.30;99.90
29725;DHT22;16636;48.394;15.468;2023-03-01T15:50:43;8.20;99.90
29725;DHT22;16636;48.394;15.468;2023-03-01T15:53:13;8.20;99.90
29725;DHT22;16636;48.394;15.468;2023-03-01T15:55:41;8.10;99.90
29725;DHT22;16636;48.394;15.468;2023-03-01T15:58:13;8.10;99.90
29725;DHT22;16636;48.394;15.468;2023-03-01T16:00:39;8.00;99.90
29725;DHT22;16636;48.394;15.468;2023-03-01T16:03:06;8.00;99.90
29725;DHT22;16636;48.394;15.468;2023-03-01T16:05:35;7.90;99.90
29725;DHT22;16636;48.394;15.468;2023-03-01T16:08:05;7.90;99.90
29725;DHT22;16636;48.394;15.468;2023-03-01T16:10:32;7.90;99.90
29725;DHT22;16636;48.394;15.468;2023-03-01T16:12:59;7.80;99.90
29725;DHT22;16636;48.394;15.468;2023-03-01T16:15:30;7.80;99.90
29725;DHT22;16636;48.394;15.468;2023-03-01T16:17:57;7.70;99.90
29725;DHT22;16636;48.394;15.468;2023-03-01T16:20:27;7.70;99.90
29725;DHT22;16636;48.394;15.468;2023-03-01T16:22:54;7.70;99.90
29725;DHT22;16636;48.394;15.468;2023-03-01T16:25:20;7.60;99.90
29725;DHT22;16636;48.394;15.468;2023-03-01T16:27:49;7.60;99.90
29725;DHT22;16636;48.394;15.468;2023-03-01T16:30:18;7.60;99.90
29725;DHT22;16636;48.394;15.468;2023-03-01T16:32:46;7.60;99.90
29725;DHT22;16636;48.394;15.468;2023-03-01T16:35:15;7.60;99.90
29725;DHT22;16636;48.394;15.468;2023-03-01T16:37:41;7.50;99.90
29725;DHT22;16636;48.394;15.468;2023-03-01T16:40:17;7.50;99.90
29725;DHT22;16636;48.394;15.468;2023-03-01T16:42:44;7.50;99.90
29725;DHT22;16636;48.394;15.468;2023-03-01T16:45:10;7.40;99.90
29725;DHT22;16636;48.394;15.468;2023-03-01T16:47:36;7.30;99.90
29725;DHT22;16636;48.394;15.468;2023-03-01T16:50:03;7.30;99.90
29725;DHT22;16636;48.394;15.468;2023-03-01T16:52:29;7.30;99.90
29725;DHT22;16636;48.394;15.468;2023-03-01T16:54:54;7.30;99.90
29725;DHT22;16636;48.394;15.468;2023-03-01T16:57:20;7.30;99.90
29725;DHT22;16636;48.394;15.468;2023-03-01T16:59:46;7.20;99.90
29725;DHT22;16636;48.394;15.468;2023-03-01T17:02:13;7.20;99.90
29725;DHT22;16636;48.394;15.468;2023-03-01T17:04:51;7.20;99.90
29725;DHT22;16636;48.394;15.468;2023-03-01T17:07:17;7.10;99.90
29725;DHT22;16636;48.394;15.468;2023-03-01T17:09:46;7.10;99.90
29725;DHT22;16636;48.394;15.468;2023-03-01T17:12:13;7.00;99.90
29725;DHT22;16636;48.394;15.468;2023-03-01T17:14:42;7.00;99.90
29725;DHT22;16636;48.394;15.468;2023-03-01T17:17:32;7.00;99.90
29725;DHT22;16636;48.394;15.468;2023-03-01T17:20:06;7.00;99.90
29725;DHT22;16636;48.394;15.468;2023-03-01T17:22:39;6.90;99.90
29725;DHT22;16636;48.394;15.468;2023-03-01T17:25:08;6.90;99.90
29725;DHT22;16636;48.394;15.468;2023-03-01T17:27:59;6.90;99.90
29725;DHT22;16636;48.394;15.468;2023-03-01T17:30:24;6.80;99.90
29725;DHT22;16636;48.394;15.468;2023-03-01T17:33:13;6.80;99.90
29725;DHT22;16636;48.394;15.468;2023-03-01T17:35:58;6.80;99.90
29725;DHT22;16636;48.394;15.468;2023-03-01T17:38:31;6.80;99.90
29725;DHT22;16636;48.394;15.468;2023-03-01T17:41:29;6.70;99.90
29725;DHT22;16636;48.394;15.468;2023-03-01T17:44:24;6.70;99.90
29725;DHT22;16636;48.394;15.468;2023-03-01T17:46:50;6.70;99.90
29725;DHT22;16636;48.394;15.468;2023-03-01T17:49:16;6.70;99.90
29725;DHT22;16636;48.394;15.468;2023-03-01T17:51:43;6.70;99.90
29725;DHT22;16636;48.394;15.468;2023-03-01T17:54:10;6.70;99.90
29725;DHT22;16636;48.394;15.468;2023-03-01T17:56:36;6.80;99.90
29725;DHT22;16636;48.394;15.468;2023-03-01T17:59:04;6.70;99.90
29725;DHT22;16636;48.394;15.468;2023-03-01T18:01:31;6.70;99.90
29725;DHT22;16636;48.394;15.468;2023-03-01T18:03:59;6.70;99.90
29725;DHT22;16636;48.394;15.468;2023-03-01T18:06:27;6.70;99.90
29725;DHT22;16636;48.394;15.468;2023-03-01T18:08:54;6.70;99.90
29725;DHT22;16636;48.394;15.468;2023-03-01T18:11:22;6.70;99.90
29725;DHT22;16636;48.394;15.468;2023-03-01T18:13:48;6.70;99.90
29725;DHT22;16636;48.394;15.468;2023-03-01T18:16:17;6.70;99.90